Time;durP1;ratioP1;P1;durP2;ratioP2;P2;SDS_P1;SDS_P2;PMS_P1;PMS_P2;Temp;Humidity;BMP_temperature;BMP_pressure;BME280_temperature;BME280_humidity;BME280_pressure;Samples;Min_cycle;Max_cycle;Signal;HPM_P1;HPM_P2
2021/08/16 00:00:34;;;;;;;7.27;5.33;;;19.80;99.90;;;;;;5078137;28;20225;-72
2021/08/16 00:03:20;;;;;;;9.10;5.80;;;19.90;99.90;;;;;;5064461;28;20465;-72
2021/08/16 00:06:06;;;;;;;6.60;5.00;;;19.90;99.90;;;;;;5068103;28;20437;-71
2021/08/16 00:08:51;;;;;;;10.33;5.70;;;20.00;99.90;;;;;;5075810;28;20462;-72
2021/08/16 00:11:39;;;;;;;8.97;6.17;;;20.00;99.90;;;;;;5080317;28;21092;-72
2021/08/16 00:14:24;;;;;;;6.97;5.40;;;20.10;99.90;;;;;;5069848;28;20455;-72
2021/08/16 00:17:12;;;;;;;6.93;5.83;;;20.00;99.90;;;;;;5061027;28;20457;-72
2021/08/16 00:19:58;;;;;;;7.30;5.30;;;20.00;99.90;;;;;;5065816;28;20449;-72
2021/08/16 00:22:43;;;;;;;5.80;5.20;;;20.00;99.90;;;;;;5071820;28;20453;-72
2021/08/16 00:25:29;;;;;;;7.88;5.45;;;20.00;99.90;;;;;;5076610;28;20543;-72
2021/08/16 00:28:15;;;;;;;9.27;5.53;;;19.90;99.90;;;;;;5070667;28;20231;-71
2021/08/16 00:31:01;;;;;;;8.63;5.90;;;20.00;99.90;;;;;;5072954;28;20471;-72
2021/08/16 00:33:48;;;;;;;12.63;5.23;;;20.00;99.90;;;;;;5073149;28;20503;-72
2021/08/16 00:36:33;;;;;;;7.50;5.80;;;20.00;99.90;;;;;;5077025;28;20953;-72
2021/08/16 00:39:19;;;;;;;6.70;5.90;;;20.10;99.90;;;;;;5080367;28;20421;-72
2021/08/16 00:42:09;;;;;;;9.43;5.80;;;20.00;99.90;;;;;;5065013;28;20472;-71
2021/08/16 00:44:54;;;;;;;6.90;4.90;;;20.00;99.90;;;;;;5068312;28;20534;-72
2021/08/16 00:47:41;;;;;;;11.03;6.17;;;20.00;99.90;;;;;;5061297;28;20493;-72
2021/08/16 00:50:28;;;;;;;7.20;5.43;;;19.90;99.90;;;;;;5077049;28;20452;-72
2021/08/16 00:53:15;;;;;;;8.10;5.80;;;19.80;99.90;;;;;;5068216;28;20449;-72
2021/08/16 00:56:00;;;;;;;9.13;5.25;;;19.80;99.90;;;;;;5062557;28;20447;-71
2021/08/16 00:58:46;;;;;;;6.83;5.50;;;19.80;99.90;;;;;;5064385;28;20563;-72
2021/08/16 01:01:32;;;;;;;9.20;6.10;;;19.80;99.90;;;;;;5076993;28;20480;-72
2021/08/16 01:04:17;;;;;;;13.80;5.93;;;19.90;99.90;;;;;;5060890;28;20450;-72
2021/08/16 01:07:05;;;;;;;9.93;5.70;;;19.90;99.90;;;;;;5062247;28;20540;-72
2021/08/16 01:09:51;;;;;;;7.30;6.07;;;20.00;99.90;;;;;;5070750;28;20571;-72
2021/08/16 01:12:37;;;;;;;9.60;5.47;;;19.90;99.90;;;;;;5067072;28;20595;-72
2021/08/16 01:15:23;;;;;;;12.07;5.03;;;19.90;99.90;;;;;;5064678;28;20472;-71
2021/08/16 01:18:09;;;;;;;9.50;5.80;;;20.00;99.90;;;;;;5059966;28;20442;-70
2021/08/16 01:20:55;;;;;;;8.17;5.90;;;19.80;99.90;;;;;;5054432;28;20464;-72
2021/08/16 01:23:43;;;;;;;10.98;6.55;;;19.80;99.90;;;;;;5079867;28;20412;-72
2021/08/16 01:26:33;;;;;;;6.90;5.80;;;19.90;99.90;;;;;;5057543;28;20346;-71
2021/08/16 01:29:22;;;;;;;8.67;5.23;;;20.10;99.90;;;;;;5074305;28;20531;-71
2021/08/16 01:32:09;;;;;;;8.00;5.40;;;20.00;99.90;;;;;;5068989;28;20455;-71
2021/08/16 01:34:54;;;;;;;11.20;5.93;;;20.10;99.90;;;;;;5066490;28;20530;-72
2021/08/16 01:37:42;;;;;;;10.37;6.37;;;19.80;99.90;;;;;;5057023;28;20925;-72
2021/08/16 01:40:27;;;;;;;9.17;6.10;;;19.70;99.90;;;;;;5075487;28;20560;-72
2021/08/16 01:43:14;;;;;;;8.47;5.90;;;19.60;99.90;;;;;;5081701;28;20418;-72
2021/08/16 01:46:00;;;;;;;9.87;5.97;;;19.60;99.90;;;;;;5063430;28;20574;-71
2021/08/16 01:48:46;;;;;;;8.67;5.80;;;19.60;99.90;;;;;;5059487;28;20480;-72
2021/08/16 01:51:31;;;;;;;10.50;6.40;;;19.60;99.90;;;;;;5070751;28;20607;-72
2021/08/16 01:54:18;;;;;;;8.23;6.43;;;19.70;99.90;;;;;;5080996;28;20820;-72
2021/08/16 01:57:04;;;;;;;7.80;6.03;;;19.80;99.90;;;;;;5071643;28;20439;-72
2021/08/16 01:59:51;;;;;;;8.07;5.93;;;19.80;99.90;;;;;;5080837;28;20524;-72
2021/08/16 02:02:37;;;;;;;8.47;5.53;;;19.90;99.90;;;;;;5071878;28;20463;-72
2021/08/16 02:05:22;;;;;;;10.37;5.93;;;19.90;99.90;;;;;;5083063;28;20949;-72
2021/08/16 02:08:08;;;;;;;6.07;5.47;;;19.90;99.90;;;;;;5074051;28;20434;-72
2021/08/16 02:10:54;;;;;;;7.67;5.70;;;19.90;99.90;;;;;;5077318;28;20471;-72
2021/08/16 02:13:39;;;;;;;7.30;5.50;;;19.90;99.90;;;;;;5075250;28;20452;-71
2021/08/16 02:16:26;;;;;;;11.48;5.90;;;19.90;99.90;;;;;;5063686;28;20932;-72
2021/08/16 02:19:12;;;;;;;9.90;5.37;;;19.80;99.90;;;;;;5078265;28;20197;-71
2021/08/16 02:21:57;;;;;;;9.17;6.27;;;19.90;99.90;;;;;;5064957;28;20473;-72
2021/08/16 02:24:43;;;;;;;10.20;6.30;;;20.00;99.90;;;;;;5086763;28;20494;-72
2021/08/16 02:27:29;;;;;;;11.37;5.77;;;20.00;99.90;;;;;;5073488;28;20468;-72
2021/08/16 02:30:17;;;;;;;9.70;6.30;;;19.90;99.90;;;;;;5072241;28;20929;-72
2021/08/16 02:33:04;;;;;;;8.67;6.07;;;19.90;99.90;;;;;;5073973;28;20798;-71
2021/08/16 02:35:49;;;;;;;8.00;5.47;;;19.90;99.90;;;;;;5067345;28;20828;-71
2021/08/16 02:38:35;;;;;;;9.90;6.03;;;20.00;99.90;;;;;;5079664;28;20443;-72
2021/08/16 02:41:21;;;;;;;9.53;6.37;;;19.90;99.90;;;;;;5074559;28;20470;-72
2021/08/16 02:44:06;;;;;;;7.90;6.10;;;20.00;99.90;;;;;;5073674;28;20453;-72
2021/08/16 02:46:52;;;;;;;10.10;6.20;;;20.00;99.90;;;;;;5064521;28;20525;-72
2021/08/16 02:49:39;;;;;;;8.87;5.67;;;20.00;99.90;;;;;;5067893;28;20269;-72
2021/08/16 02:52:25;;;;;;;7.30;6.03;;;20.00;99.90;;;;;;5082299;28;20465;-72
2021/08/16 02:55:11;;;;;;;10.57;6.17;;;20.00;99.90;;;;;;5071360;28;20451;-72
2021/08/16 02:57:57;;;;;;;9.27;7.00;;;20.10;99.90;;;;;;5081630;28;20454;-72
2021/08/16 03:00:42;;;;;;;6.07;5.40;;;20.00;99.90;;;;;;5066300;28;20480;-72
2021/08/16 03:03:29;;;;;;;10.23;6.93;;;19.90;99.90;;;;;;5070280;28;20462;-72
2021/08/16 03:06:16;;;;;;;6.90;6.20;;;19.80;99.90;;;;;;5071735;28;21086;-71
2021/08/16 03:09:01;;;;;;;11.27;6.47;;;19.80;99.90;;;;;;5065468;28;20599;-72
2021/08/16 03:11:47;;;;;;;9.80;5.80;;;19.70;99.90;;;;;;5077430;28;20624;-72
2021/08/16 03:14:32;;;;;;;7.07;5.80;;;19.70;99.90;;;;;;5072175;28;20461;-71
2021/08/16 03:17:18;;;;;;;11.70;6.20;;;19.70;99.90;;;;;;5080334;28;20547;-71
2021/08/16 03:20:05;;;;;;;13.37;6.27;;;19.70;99.90;;;;;;5057716;28;20978;-72
2021/08/16 03:22:52;;;;;;;12.50;7.13;;;19.70;99.90;;;;;;5064604;28;20530;-72
2021/08/16 03:25:38;;;;;;;13.80;7.47;;;19.70;99.90;;;;;;5065058;28;20426;-72
2021/08/16 03:28:26;;;;;;;8.83;7.00;;;19.70;99.90;;;;;;5072302;28;20510;-72
2021/08/16 03:31:11;;;;;;;9.50;6.53;;;19.70;99.90;;;;;;5067216;28;20476;-72
2021/08/16 03:33:57;;;;;;;15.47;6.60;;;19.70;99.90;;;;;;5064072;28;20451;-72
2021/08/16 03:36:43;;;;;;;8.40;6.63;;;19.70;99.90;;;;;;5062641;28;20920;-72
2021/08/16 03:39:30;;;;;;;9.82;6.40;;;19.80;99.90;;;;;;5065052;28;20958;-72
2021/08/16 03:42:16;;;;;;;8.37;6.57;;;19.90;99.90;;;;;;5075902;28;20234;-72
2021/08/16 03:45:02;;;;;;;7.70;6.30;;;20.00;99.90;;;;;;5063458;28;20446;-72
2021/08/16 03:47:48;;;;;;;13.27;6.47;;;20.10;99.90;;;;;;5066796;28;20503;-72
2021/08/16 03:50:34;;;;;;;9.43;6.40;;;20.20;99.90;;;;;;5076084;28;20533;-72
2021/08/16 03:53:19;;;;;;;6.90;5.80;;;20.10;99.90;;;;;;5073863;28;20813;-72
2021/08/16 03:56:10;;;;;;;7.60;6.07;;;20.20;99.90;;;;;;5068533;28;20458;-72
2021/08/16 03:58:56;;;;;;;10.53;7.33;;;20.30;99.90;;;;;;5071298;28;20439;-71
2021/08/16 04:01:42;;;;;;;8.70;5.70;;;20.30;99.90;;;;;;5067921;28;20607;-72
2021/08/16 04:04:28;;;;;;;24.37;6.60;;;20.30;99.90;;;;;;5072644;28;20527;-72
2021/08/16 04:07:13;;;;;;;8.60;6.57;;;20.30;99.90;;;;;;5061840;28;20588;-72
2021/08/16 04:09:59;;;;;;;9.90;6.20;;;20.30;99.90;;;;;;5072509;28;20469;-72
2021/08/16 04:12:47;;;;;;;10.00;4.35;;;20.40;99.90;;;;;;5076282;28;20447;-72
2021/08/16 04:15:33;;;;;;;8.53;4.70;;;20.40;99.90;;;;;;5072847;28;20199;-72
2021/08/16 04:18:19;;;;;;;6.67;4.50;;;20.40;99.90;;;;;;5068916;28;20964;-72
2021/08/16 04:21:04;;;;;;;14.07;3.43;;;20.50;99.90;;;;;;5062617;28;20507;-72
2021/08/16 04:23:50;;;;;;;5.57;3.77;;;20.50;99.90;;;;;;5059841;28;20586;-71
2021/08/16 04:26:36;;;;;;;5.67;3.77;;;20.60;99.90;;;;;;5065698;28;20447;-71
2021/08/16 04:29:23;;;;;;;7.47;2.90;;;20.50;99.90;;;;;;5068878;28;20475;-71
2021/08/16 04:32:09;;;;;;;13.53;3.53;;;20.40;99.90;;;;;;5064925;28;20444;-71
2021/08/16 04:34:54;;;;;;;9.47;3.67;;;20.40;99.90;;;;;;5067379;28;20824;-72
2021/08/16 04:37:41;;;;;;;6.33;3.67;;;20.30;99.90;;;;;;5079073;28;20454;-71
2021/08/16 04:40:26;;;;;;;7.67;3.23;;;20.30;99.90;;;;;;5063125;28;20457;-71
2021/08/16 04:43:12;;;;;;;11.43;3.30;;;20.30;99.90;;;;;;5063496;28;20451;-71
2021/08/16 04:45:59;;;;;;;4.33;2.90;;;20.30;99.90;;;;;;5064823;28;20435;-71
2021/08/16 04:48:45;;;;;;;5.20;3.47;;;20.40;99.90;;;;;;5065400;28;20501;-71
2021/08/16 04:51:30;;;;;;;5.53;3.20;;;20.30;99.90;;;;;;5064464;28;20542;-71
2021/08/16 04:54:16;;;;;;;4.70;3.17;;;20.30;99.90;;;;;;5073373;28;20456;-71
2021/08/16 04:57:02;;;;;;;5.33;2.60;;;20.40;99.90;;;;;;5071424;28;20517;-71
2021/08/16 04:59:47;;;;;;;5.20;2.93;;;20.40;99.90;;;;;;5066218;28;20477;-72
2021/08/16 05:02:35;;;;;;;5.70;2.67;;;20.40;99.90;;;;;;5067563;28;20803;-71
2021/08/16 05:05:23;;;;;;;7.53;3.03;;;20.50;99.90;;;;;;5064544;28;20448;-71
2021/08/16 05:08:08;;;;;;;7.55;3.63;;;20.50;99.90;;;;;;5059071;28;20442;-72
2021/08/16 05:10:54;;;;;;;11.43;3.10;;;20.50;99.90;;;;;;5065398;28;20280;-71
2021/08/16 05:13:39;;;;;;;5.23;3.33;;;20.50;99.90;;;;;;5075463;28;20647;-71
2021/08/16 05:16:25;;;;;;;7.17;3.70;;;20.50;99.90;;;;;;5069497;28;20457;-72
2021/08/16 05:19:12;;;;;;;6.27;3.50;;;20.40;99.90;;;;;;5069394;28;20451;-71
2021/08/16 05:21:58;;;;;;;5.10;3.07;;;20.40;99.90;;;;;;5061872;28;20939;-71
2021/08/16 05:24:44;;;;;;;9.93;3.37;;;20.50;99.90;;;;;;5079226;28;20419;-71
2021/08/16 05:27:29;;;;;;;7.20;3.27;;;20.30;99.90;;;;;;5073054;28;20460;-71
2021/08/16 05:30:15;;;;;;;8.83;3.10;;;20.30;99.90;;;;;;5078966;28;20477;-71
2021/08/16 05:33:00;;;;;;;4.67;2.67;;;20.40;99.90;;;;;;5068134;28;20498;-72
2021/08/16 05:35:47;;;;;;;6.97;3.20;;;20.40;99.90;;;;;;5068811;28;20526;-71
2021/08/16 05:38:33;;;;;;;6.00;3.57;;;20.30;99.90;;;;;;5079924;28;20247;-72
2021/08/16 05:41:18;;;;;;;7.60;3.37;;;20.40;99.90;;;;;;5077316;28;20475;-71
2021/08/16 05:44:04;;;;;;;5.73;2.73;;;20.50;99.90;;;;;;5063988;28;20819;-71
2021/08/16 05:46:50;;;;;;;6.03;2.67;;;20.40;99.90;;;;;;5067071;28;20448;-71
2021/08/16 05:49:36;;;;;;;6.10;2.50;;;20.40;99.80;;;;;;5078284;28;20478;-71
2021/08/16 05:52:23;;;;;;;5.83;2.90;;;20.50;99.90;;;;;;5071332;28;20550;-72
2021/08/16 05:55:09;;;;;;;5.30;2.47;;;20.40;99.10;;;;;;5063967;28;20964;-71
2021/08/16 05:57:55;;;;;;;10.77;2.63;;;20.30;93.70;;;;;;5058442;28;20685;-71
2021/08/16 06:00:41;;;;;;;8.73;2.60;;;20.20;96.00;;;;;;5076663;28;20837;-71
2021/08/16 06:03:27;;;;;;;5.47;2.60;;;20.20;92.50;;;;;;5074942;28;20420;-71
2021/08/16 06:06:12;;;;;;;5.93;2.63;;;20.10;93.80;;;;;;5075081;28;20212;-71
2021/08/16 06:08:59;;;;;;;11.23;2.60;;;20.20;94.10;;;;;;5054102;28;20421;-72
2021/08/16 06:11:45;;;;;;;5.90;2.63;;;20.30;95.30;;;;;;5092857;28;20579;-71
2021/08/16 06:14:31;;;;;;;10.90;3.00;;;20.30;95.80;;;;;;5085508;28;20575;-72
2021/08/16 06:17:17;;;;;;;15.90;2.80;;;20.40;95.90;;;;;;5075784;28;20515;-71
2021/08/16 06:20:02;;;;;;;8.90;3.00;;;20.40;99.60;;;;;;5055159;28;20445;-72
2021/08/16 06:22:48;;;;;;;12.20;2.70;;;20.40;99.90;;;;;;5071943;28;20542;-72
2021/08/16 06:25:35;;;;;;;10.33;3.10;;;20.40;99.10;;;;;;5068681;28;20411;-71
2021/08/16 06:28:21;;;;;;;8.23;2.90;;;20.40;99.90;;;;;;5073416;28;20427;-72
2021/08/16 06:31:07;;;;;;;11.90;2.10;;;20.40;98.80;;;;;;5069466;28;20955;-72
2021/08/16 06:33:52;;;;;;;7.75;3.80;;;20.30;99.90;;;;;;5059812;28;20439;-71
2021/08/16 06:36:40;;;;;;;5.47;3.23;;;20.40;96.90;;;;;;5067622;28;20303;-72
2021/08/16 06:39:28;;;;;;;6.10;2.40;;;20.40;95.90;;;;;;5065319;28;20429;-71
2021/08/16 06:42:15;;;;;;;8.50;2.93;;;20.50;97.10;;;;;;5070431;28;20526;-71
2021/08/16 06:45:01;;;;;;;5.43;2.57;;;20.50;96.80;;;;;;5061667;28;20797;-71
2021/08/16 06:47:46;;;;;;;9.90;3.00;;;20.50;97.30;;;;;;5063975;28;20896;-71
2021/08/16 06:50:32;;;;;;;8.93;2.60;;;20.50;97.60;;;;;;5064792;28;20507;-71
2021/08/16 06:53:18;;;;;;;7.33;3.13;;;20.60;98.10;;;;;;5079759;28;20476;-71
2021/08/16 06:56:04;;;;;;;5.23;2.70;;;20.70;99.60;;;;;;5065060;28;20442;-71
2021/08/16 06:58:51;;;;;;;9.93;3.00;;;20.50;95.60;;;;;;5078368;28;20433;-71
2021/08/16 07:01:37;;;;;;;10.57;3.47;;;20.60;96.90;;;;;;5055460;28;20486;-71
2021/08/16 07:04:23;;;;;;;8.87;3.27;;;20.60;96.50;;;;;;5075189;28;20578;-72
2021/08/16 07:07:09;;;;;;;6.37;3.57;;;20.60;99.20;;;;;;5070005;28;20473;-71
2021/08/16 07:09:55;;;;;;;7.33;3.50;;;20.70;98.80;;;;;;5065929;28;20442;-71
2021/08/16 07:12:40;;;;;;;8.33;3.13;;;20.70;96.60;;;;;;5073490;28;20470;-71
2021/08/16 07:15:29;;;;;;;7.97;2.73;;;20.70;97.40;;;;;;5066049;28;20539;-71
2021/08/16 07:18:16;;;;;;;7.03;2.90;;;20.70;99.20;;;;;;5069098;28;20452;-71
2021/08/16 07:21:01;;;;;;;6.80;3.20;;;20.80;97.90;;;;;;5063081;28;20944;-71
2021/08/16 07:23:47;;;;;;;7.13;3.00;;;20.80;99.60;;;;;;5069368;28;21042;-71
2021/08/16 07:26:33;;;;;;;7.77;2.73;;;20.80;97.50;;;;;;5060631;28;20825;-71
2021/08/16 07:29:18;;;;;;;7.70;2.80;;;20.70;98.80;;;;;;5076797;28;20416;-71
2021/08/16 07:32:06;;;;;;;8.93;3.00;;;20.80;97.60;;;;;;5062099;28;20225;-72
2021/08/16 07:34:52;;;;;;;8.33;3.40;;;20.90;97.70;;;;;;5065163;28;21057;-72
2021/08/16 07:37:38;;;;;;;6.33;2.30;;;20.80;95.10;;;;;;5088392;28;20431;-71
2021/08/16 07:40:24;;;;;;;8.47;3.03;;;20.70;90.70;;;;;;5077377;28;20803;-71
2021/08/16 07:43:09;;;;;;;6.50;2.60;;;20.60;90.30;;;;;;5055818;28;20431;-73
2021/08/16 07:45:55;;;;;;;5.30;1.97;;;20.50;91.70;;;;;;5055186;28;20445;-72
2021/08/16 07:48:42;;;;;;;5.93;2.23;;;20.40;91.20;;;;;;5069210;28;20599;-73
2021/08/16 07:51:28;;;;;;;6.40;2.50;;;20.40;90.70;;;;;;5061509;28;21104;-72
2021/08/16 07:54:13;;;;;;;9.10;2.55;;;20.30;91.10;;;;;;5065004;28;20415;-72
2021/08/16 07:56:59;;;;;;;5.65;2.22;;;20.20;90.90;;;;;;5057985;28;20523;-72
2021/08/16 07:59:44;;;;;;;6.60;2.47;;;20.10;90.50;;;;;;5057918;28;20684;-72
2021/08/16 08:02:39;;;;;;;5.30;1.70;;;20.10;91.00;;;;;;5054358;28;20466;-72
2021/08/16 08:05:26;;;;;;;5.40;2.03;;;20.20;91.00;;;;;;5064738;28;20457;-72
2021/08/16 08:08:12;;;;;;;7.53;2.20;;;20.20;91.20;;;;;;5065015;28;20930;-73
2021/08/16 08:10:58;;;;;;;3.83;1.67;;;20.10;90.90;;;;;;5076532;28;20820;-72
2021/08/16 08:13:44;;;;;;;6.53;2.63;;;20.10;90.80;;;;;;5073935;28;20582;-72
2021/08/16 08:16:29;;;;;;;6.20;2.10;;;20.10;91.30;;;;;;5055150;28;20453;-72
2021/08/16 08:19:15;;;;;;;9.17;2.70;;;20.20;91.60;;;;;;5063394;28;20466;-75
2021/08/16 08:22:01;;;;;;;6.80;2.13;;;20.10;92.20;;;;;;5063455;28;20463;-74
2021/08/16 08:24:47;;;;;;;7.27;2.43;;;20.20;92.00;;;;;;5057052;28;20805;-72
2021/08/16 08:27:33;;;;;;;6.17;2.63;;;20.30;91.90;;;;;;5058536;28;20553;-71
2021/08/16 08:30:18;;;;;;;6.70;2.40;;;20.40;91.40;;;;;;5057154;28;20510;-72
2021/08/16 08:33:04;;;;;;;6.67;2.43;;;20.60;92.10;;;;;;5063323;28;20418;-72
2021/08/16 08:35:51;;;;;;;9.43;2.60;;;20.60;91.10;;;;;;5056660;28;20441;-71
2021/08/16 08:38:38;;;;;;;4.03;2.10;;;20.60;91.20;;;;;;5059899;28;20782;-72
2021/08/16 08:41:25;;;;;;;6.60;2.60;;;20.70;90.90;;;;;;5064616;28;20545;-71
2021/08/16 08:44:13;;;;;;;8.40;2.70;;;20.80;91.30;;;;;;5062453;28;20471;-72
2021/08/16 08:46:59;;;;;;;10.33;2.63;;;20.90;88.40;;;;;;5063267;28;20597;-72
2021/08/16 08:49:45;;;;;;;8.85;2.53;;;20.90;90.80;;;;;;5064787;28;20457;-72
2021/08/16 08:52:30;;;;;;;8.60;3.20;;;20.90;91.60;;;;;;5051286;28;20215;-71
2021/08/16 08:55:17;;;;;;;5.87;2.37;;;21.00;90.00;;;;;;5054958;28;20452;-72
2021/08/16 08:58:05;;;;;;;9.83;3.00;;;21.10;90.00;;;;;;5060028;28;20585;-74
2021/08/16 09:00:51;;;;;;;15.00;3.00;;;21.30;90.60;;;;;;5069952;28;20458;-72
2021/08/16 09:03:47;;;;;;;8.83;2.73;;;21.30;86.10;;;;;;5061769;28;20504;-72
2021/08/16 09:06:35;;;;;;;7.77;2.80;;;21.20;86.20;;;;;;5051533;28;20435;-72
2021/08/16 09:09:21;;;;;;;5.87;1.90;;;21.20;86.70;;;;;;5052647;28;20415;-72
2021/08/16 09:12:08;;;;;;;5.63;2.20;;;21.20;85.80;;;;;;5060361;28;21023;-73
2021/08/16 09:14:54;;;;;;;5.60;1.93;;;21.20;87.50;;;;;;5059908;28;20513;-73
2021/08/16 09:17:40;;;;;;;7.17;2.23;;;21.20;88.00;;;;;;5058499;28;20516;-72
2021/08/16 09:20:31;;;;;;;5.67;2.10;;;21.10;84.80;;;;;;5064902;28;20518;-72
2021/08/16 09:23:16;;;;;;;8.65;2.58;;;21.00;84.70;;;;;;5071432;28;20525;-72
2021/08/16 09:26:03;;;;;;;9.27;2.60;;;21.00;86.50;;;;;;5063151;28;20335;-72
2021/08/16 09:28:50;;;;;;;6.63;1.70;;;20.90;87.00;;;;;;5058171;28;20450;-73
2021/08/16 09:31:36;;;;;;;6.77;2.00;;;21.00;88.40;;;;;;5056401;28;20977;-73
2021/08/16 09:34:33;;;;;;;5.50;1.90;;;21.20;88.50;;;;;;5065086;28;20498;-72
2021/08/16 09:37:23;;;;;;;9.60;2.50;;;21.20;84.90;;;;;;5061618;28;20448;-72
2021/08/16 09:40:10;;;;;;;4.90;2.23;;;21.40;86.50;;;;;;5075348;28;20415;-73
2021/08/16 09:42:56;;;;;;;6.03;2.10;;;21.40;85.00;;;;;;5076147;28;20412;-72
2021/08/16 09:45:43;;;;;;;7.60;2.53;;;21.50;85.10;;;;;;5091005;28;20472;-72
2021/08/16 09:48:29;;;;;;;4.83;2.33;;;21.60;85.20;;;;;;5091545;28;20526;-72
2021/08/16 09:51:22;;;;;;;8.57;2.43;;;21.70;85.30;;;;;;5091179;28;20453;-72
2021/08/16 09:54:07;;;;;;;4.80;2.03;;;21.70;82.60;;;;;;5091307;28;20420;-72
2021/08/16 09:56:54;;;;;;;10.53;2.10;;;21.60;80.60;;;;;;5091399;28;20808;-72
2021/08/16 09:59:40;;;;;;;3.60;2.03;;;21.80;81.90;;;;;;5091356;28;20513;-72
2021/08/16 10:02:27;;;;;;;9.40;2.40;;;21.90;82.60;;;;;;5090947;28;20455;-72
2021/08/16 10:05:12;;;;;;;5.40;2.20;;;22.00;81.70;;;;;;5090907;28;20507;-72
2021/08/16 10:08:00;;;;;;;7.00;2.30;;;21.90;79.20;;;;;;5091197;28;20555;-72
2021/08/16 10:10:46;;;;;;;9.30;2.83;;;21.90;77.20;;;;;;5084182;28;20834;-72
2021/08/16 10:13:35;;;;;;;8.63;2.13;;;22.10;81.00;;;;;;5068061;28;20847;-72
2021/08/16 10:16:24;;;;;;;5.53;2.33;;;22.20;76.80;;;;;;5054111;28;20428;-72
2021/08/16 10:19:15;;;;;;;7.43;2.40;;;22.30;76.60;;;;;;5052471;28;20573;-73
2021/08/16 10:22:02;;;;;;;5.50;2.10;;;22.40;76.50;;;;;;5054259;28;20358;-72
2021/08/16 10:24:47;;;;;;;7.00;2.23;;;22.40;71.80;;;;;;5054080;28;20449;-72
2021/08/16 10:27:33;;;;;;;5.90;2.33;;;22.40;73.10;;;;;;5054639;28;20437;-73
2021/08/16 10:30:19;;;;;;;10.60;1.70;;;22.60;71.10;;;;;;5054343;28;20602;-72
2021/08/16 10:33:05;;;;;;;6.10;2.00;;;22.80;73.90;;;;;;5054088;28;20414;-72
2021/08/16 10:35:53;;;;;;;10.03;2.10;;;22.90;68.80;;;;;;5053708;28;20394;-72
2021/08/16 10:38:47;;;;;;;3.20;1.57;;;22.90;68.90;;;;;;5054134;28;20544;-72
2021/08/16 10:41:39;;;;;;;4.77;2.00;;;22.80;65.80;;;;;;5080640;28;20431;-72
2021/08/16 10:44:36;;;;;;;8.55;3.40;;;22.70;66.60;;;;;;5094056;28;20852;-72
2021/08/16 10:47:27;;;;;;;5.50;2.27;;;22.80;68.20;;;;;;5094225;28;20738;-72
2021/08/16 10:50:14;;;;;;;7.23;3.10;;;22.70;65.30;;;;;;5094025;28;20936;-72
2021/08/16 10:53:03;;;;;;;3.97;2.27;;;22.50;63.70;;;;;;5093991;28;20497;-72
2021/08/16 10:55:51;;;;;;;5.60;2.00;;;22.70;65.00;;;;;;5094205;28;20563;-73
2021/08/16 10:58:38;;;;;;;4.23;2.00;;;23.00;64.80;;;;;;5093935;28;20812;-72
2021/08/16 11:01:28;;;;;;;9.90;2.30;;;23.30;64.70;;;;;;5093876;28;20472;-72
2021/08/16 11:04:15;;;;;;;7.70;2.00;;;23.50;62.00;;;;;;5093889;28;20467;-72
2021/08/16 11:07:03;;;;;;;3.80;2.13;;;23.40;60.10;;;;;;5093755;28;20536;-72
2021/08/16 11:09:57;;;;;;;6.28;2.40;;;23.10;59.00;;;;;;5089493;28;20412;-72
2021/08/16 11:12:44;;;;;;;9.20;2.20;;;22.90;61.30;;;;;;5077830;28;20221;-72
2021/08/16 11:15:35;;;;;;;3.63;1.70;;;22.80;60.20;;;;;;5053086;28;20529;-72
2021/08/16 11:18:22;;;;;;;3.30;1.83;;;22.50;63.10;;;;;;5051908;28;20418;-72
2021/08/16 11:21:10;;;;;;;10.43;2.47;;;22.30;63.30;;;;;;5052444;28;20432;-73
2021/08/16 11:23:59;;;;;;;10.60;3.07;;;22.10;64.60;;;;;;5054385;28;20452;-72
2021/08/16 11:26:49;;;;;;;5.93;2.37;;;21.80;65.60;;;;;;5078482;28;20921;-72
2021/08/16 11:29:36;;;;;;;7.70;2.10;;;21.70;68.10;;;;;;5072074;28;20590;-72
2021/08/16 11:32:23;;;;;;;5.07;1.93;;;21.70;68.70;;;;;;5070574;28;20472;-72
2021/08/16 11:35:10;;;;;;;5.45;2.50;;;21.60;72.10;;;;;;5057934;28;20425;-72
2021/08/16 11:37:55;;;;;;;6.97;2.70;;;21.60;72.00;;;;;;5061339;28;20278;-72
2021/08/16 11:40:41;;;;;;;9.87;2.67;;;21.60;72.70;;;;;;5072972;28;20470;-71
2021/08/16 11:43:28;;;;;;;4.97;2.70;;;21.70;72.50;;;;;;5076086;28;20508;-71
2021/08/16 11:46:17;;;;;;;9.73;2.67;;;21.60;71.70;;;;;;5072454;28;20542;-72
2021/08/16 11:49:08;;;;;;;11.07;2.90;;;21.70;73.20;;;;;;5075523;28;20420;-71
2021/08/16 11:51:55;;;;;;;11.97;2.47;;;21.70;72.10;;;;;;5062764;28;20443;-71
2021/08/16 11:54:40;;;;;;;8.23;2.57;;;21.70;72.70;;;;;;5060524;28;20900;-72
2021/08/16 11:57:27;;;;;;;7.27;3.13;;;21.50;73.00;;;;;;5065703;28;20445;-71
2021/08/16 12:00:15;;;;;;;6.77;2.60;;;21.50;74.50;;;;;;5062982;28;20427;-76
2021/08/16 12:03:02;;;;;;;5.03;2.47;;;21.50;75.20;;;;;;5076133;28;20527;-72
2021/08/16 12:05:48;;;;;;;5.70;3.07;;;21.50;73.20;;;;;;5071278;28;20554;-71
2021/08/16 12:08:34;;;;;;;4.00;2.60;;;21.60;74.80;;;;;;5076582;28;20430;-72
2021/08/16 12:11:20;;;;;;;3.93;2.10;;;21.70;70.40;;;;;;5076973;28;20448;-71
2021/08/16 12:14:06;;;;;;;4.20;2.33;;;21.80;71.90;;;;;;5063438;28;20524;-71
2021/08/16 12:16:54;;;;;;;9.23;2.47;;;21.70;69.50;;;;;;5071697;28;20901;-71
2021/08/16 12:19:39;;;;;;;4.33;1.97;;;21.70;72.10;;;;;;5054389;28;20849;-71
2021/08/16 12:22:25;;;;;;;3.93;2.00;;;21.70;68.60;;;;;;5077341;28;20655;-72
2021/08/16 12:25:11;;;;;;;5.50;2.20;;;21.70;68.30;;;;;;5072796;28;20513;-71
2021/08/16 12:27:57;;;;;;;6.28;2.10;;;21.90;68.70;;;;;;5076459;28;20434;-72
2021/08/16 12:30:43;;;;;;;8.10;2.00;;;22.00;70.50;;;;;;5064267;28;20303;-72
2021/08/16 12:33:31;;;;;;;4.77;2.27;;;22.40;70.30;;;;;;5069933;28;20431;-72
2021/08/16 12:36:22;;;;;;;5.67;2.40;;;22.90;67.30;;;;;;5076360;28;20441;-71
2021/08/16 12:39:10;;;;;;;3.83;2.20;;;23.00;64.30;;;;;;5051466;28;20407;-72
2021/08/16 12:42:06;;;;;;;3.67;2.10;;;23.10;63.90;;;;;;5053865;28;20523;-72
2021/08/16 12:44:54;;;;;;;9.83;2.83;;;22.80;62.20;;;;;;5061696;28;20446;-72
2021/08/16 12:47:40;;;;;;;4.60;2.30;;;22.70;63.90;;;;;;5077589;28;20440;-71
2021/08/16 12:50:27;;;;;;;7.78;2.80;;;22.80;63.70;;;;;;5061618;28;20538;-72
2021/08/16 12:53:13;;;;;;;5.13;2.30;;;22.80;63.80;;;;;;5071502;28;20810;-72
2021/08/16 12:55:58;;;;;;;7.50;2.33;;;23.00;63.30;;;;;;5060199;28;20235;-72
2021/08/16 12:58:44;;;;;;;3.70;2.27;;;23.30;60.60;;;;;;5083516;28;20435;-72
2021/08/16 13:01:29;;;;;;;6.30;2.80;;;23.60;58.50;;;;;;5080841;28;21035;-72
2021/08/16 13:04:15;;;;;;;6.77;2.93;;;23.80;57.40;;;;;;5068811;28;20458;-72
2021/08/16 13:07:02;;;;;;;4.60;2.13;;;24.00;56.00;;;;;;5065829;28;21006;-71
2021/08/16 13:09:48;;;;;;;4.73;2.00;;;24.00;57.60;;;;;;5059910;28;20419;-72
2021/08/16 13:12:36;;;;;;;7.30;2.17;;;24.10;57.70;;;;;;5067580;28;20472;-71
2021/08/16 13:15:21;;;;;;;9.23;2.50;;;24.30;55.10;;;;;;5069305;28;20491;-72
2021/08/16 13:18:07;;;;;;;8.47;2.40;;;24.70;58.30;;;;;;5074742;28;20714;-71
2021/08/16 13:20:53;;;;;;;5.60;2.40;;;24.70;55.20;;;;;;5071778;28;20439;-72
2021/08/16 13:23:39;;;;;;;5.67;2.43;;;24.40;54.70;;;;;;5078514;28;20422;-72
2021/08/16 13:26:25;;;;;;;6.03;2.60;;;24.10;56.00;;;;;;5072988;28;20573;-72
2021/08/16 13:29:11;;;;;;;4.13;2.07;;;23.70;55.50;;;;;;5069290;28;21029;-72
2021/08/16 13:31:57;;;;;;;4.47;2.47;;;23.70;58.70;;;;;;5072054;28;20480;-72
2021/08/16 13:34:42;;;;;;;5.93;2.20;;;23.80;58.20;;;;;;5084635;28;20569;-72
2021/08/16 13:37:28;;;;;;;5.83;2.37;;;23.80;57.30;;;;;;5086330;28;20433;-72
2021/08/16 13:40:15;;;;;;;9.40;2.60;;;23.60;57.20;;;;;;5058365;28;20868;-72
2021/08/16 13:43:02;;;;;;;6.67;2.10;;;23.30;56.80;;;;;;5065387;28;20445;-72
2021/08/16 13:45:49;;;;;;;3.70;2.30;;;23.20;58.40;;;;;;5064974;28;20922;-72
2021/08/16 13:48:34;;;;;;;6.97;3.30;;;23.10;57.90;;;;;;5066030;28;20574;-72
2021/08/16 13:51:20;;;;;;;6.03;2.80;;;22.90;57.70;;;;;;5075138;28;20456;-72
2021/08/16 13:54:07;;;;;;;11.93;2.60;;;22.80;59.20;;;;;;5072890;28;20602;-72
2021/08/16 13:56:54;;;;;;;5.80;2.90;;;22.60;59.40;;;;;;5074922;28;20401;-71
2021/08/16 13:59:40;;;;;;;5.00;2.30;;;22.50;60.20;;;;;;5075274;28;20938;-72
2021/08/16 14:02:26;;;;;;;4.90;2.40;;;22.40;60.90;;;;;;5075005;28;20817;-72
2021/08/16 14:05:11;;;;;;;7.03;2.70;;;22.40;61.60;;;;;;5074777;28;20427;-72
2021/08/16 14:07:57;;;;;;;6.45;2.60;;;22.50;61.30;;;;;;5062139;28;20454;-72
2021/08/16 14:10:43;;;;;;;14.33;2.60;;;22.40;62.80;;;;;;5077593;28;20219;-71
2021/08/16 14:13:30;;;;;;;5.00;2.87;;;22.40;62.00;;;;;;5091825;28;20577;-72
2021/08/16 14:16:16;;;;;;;5.70;2.33;;;22.50;61.70;;;;;;5073868;28;21283;-72
2021/08/16 14:19:01;;;;;;;5.40;2.20;;;22.30;60.00;;;;;;5073634;28;20399;-72
2021/08/16 14:21:47;;;;;;;4.67;2.50;;;22.30;61.10;;;;;;5074815;28;20793;-72
2021/08/16 14:24:33;;;;;;;8.80;2.70;;;22.20;62.30;;;;;;5074354;28;20440;-72